Search for airport 
image banner adimage banner adimage banner ad
image banner ad

72PA - York Electro-Panel Psnl Use

Located in York, United States

ICAO - 72PA, IATA -

Data provided by Airmate  

General information

Coordinates: N40°2'0" W76°39'59"
Elevation is 482 feet MSL.
Magnetic variation is -10° East
View others Airports in Pennsylvania

Operational data

Special qualification required
Current time UTC:
Current local time:
Weather at : KMDT - Harrisburg Intl ( 20 km )
METAR: KMDT 182256Z 24003KT 10SM FEW060 24/10 A3025 RMK AO2 SLP242 T02390100
TAF: KMDT 182225Z 1822/1918 VRB04KT P6SM SKC FM190100 00000KT P6SM SKC FM191400 VRB04KT P6SM SKC
View NOTAMs / SUP AIP / TFR affecting this airport [VIEW]
Communications frequencies: [VIEW]

Runways:

Airport contact information

Address: York United States

Satellite view of 72PA